Time;durP1;ratioP1;P1;durP2;ratioP2;P2;SDS_P1;SDS_P2;PMS_P1;PMS_P2;Temp;Humidity;BMP_temperature;BMP_pressure;BME280_temperature;BME280_humidity;BME280_pressure;Samples;Min_cycle;Max_cycle;Signal;HPM_P1;HPM_P2
2023/09/18 00:00:14;;;;;;;10.23;8.95;;;;;;;-148.88;100.00;-17125.47;5033626;28;20502;-73
2023/09/18 00:02:40;;;;;;;11.50;7.95;;;;;;;-148.88;100.00;-17125.47;5033521;28;20384;-73
2023/09/18 00:05:05;;;;;;;9.73;7.65;;;;;;;-148.88;100.00;-17125.47;5033304;28;20022;-73
2023/09/18 00:07:31;;;;;;;9.45;7.85;;;;;;;-148.88;100.00;-17125.47;5032580;28;20025;-73
2023/09/18 00:09:56;;;;;;;8.82;7.90;;;;;;;-148.88;100.00;-17125.47;5032130;28;20071;-72
2023/09/18 00:12:21;;;;;;;11.38;8.90;;;;;;;-148.88;100.00;-17125.47;5033329;28;20369;-72
2023/09/18 00:14:50;;;;;;;10.43;8.75;;;;;;;-148.88;100.00;-17125.47;5033486;28;20469;-72
2023/09/18 00:17:16;;;;;;;11.20;9.18;;;;;;;-148.88;100.00;-17125.47;5033328;28;20029;-72
2023/09/18 00:19:43;;;;;;;12.38;9.15;;;;;;;-148.88;100.00;-17125.47;5033163;28;20411;-72
2023/09/18 00:22:08;;;;;;;9.57;8.38;;;;;;;-148.88;100.00;-17125.47;5031727;28;20539;-72
2023/09/18 00:24:33;;;;;;;12.43;9.23;;;;;;;-148.88;100.00;-17125.47;5033269;28;20083;-73
2023/09/18 00:26:59;;;;;;;10.70;9.52;;;;;;;-148.88;100.00;-17125.47;5033057;28;20028;-72
2023/09/18 00:29:24;;;;;;;10.50;9.40;;;;;;;-148.88;100.00;-17125.47;5033082;28;20029;-72
2023/09/18 00:31:50;;;;;;;12.13;9.80;;;;;;;-148.88;100.00;-17125.47;5033028;28;20052;-72
2023/09/18 00:34:15;;;;;;;11.18;9.25;;;;;;;-148.88;100.00;-17125.47;5031698;28;20103;-72
2023/09/18 00:36:41;;;;;;;10.82;9.00;;;;;;;-148.88;100.00;-17125.47;5032918;28;20156;-72
2023/09/18 00:39:06;;;;;;;10.90;9.50;;;;;;;-148.88;100.00;-17125.47;5032792;28;20112;-72
2023/09/18 00:41:32;;;;;;;13.88;9.55;;;;;;;-148.88;100.00;-17125.47;5032692;28;20056;-72
2023/09/18 00:43:57;;;;;;;10.32;8.77;;;;;;;-148.88;100.00;-17125.47;5032769;28;20063;-72
2023/09/18 00:46:23;;;;;;;13.05;9.45;;;;;;;-148.88;100.00;-17125.47;5032701;28;20025;-72
2023/09/18 00:48:50;;;;;;;11.77;9.52;;;;;;;-148.88;100.00;-17125.47;5032754;28;20033;-72
2023/09/18 00:51:16;;;;;;;11.95;9.88;;;;;;;-148.88;100.00;-17125.47;5032554;28;20029;-72
2023/09/18 00:53:48;;;;;;;12.52;9.38;;;;;;;-148.88;100.00;-17125.47;5032435;28;20033;-72
2023/09/18 00:56:14;;;;;;;11.05;9.82;;;;;;;-148.88;100.00;-17125.47;5032666;28;20029;-72
2023/09/18 00:58:40;;;;;;;10.25;9.05;;;;;;;-148.88;100.00;-17125.47;5032515;28;20479;-72
2023/09/18 01:01:05;;;;;;;12.55;9.82;;;;;;;-148.88;100.00;-17125.47;5032350;28;20025;-72
2023/09/18 01:03:30;;;;;;;12.95;9.82;;;;;;;-148.88;100.00;-17125.47;5032418;28;20028;-72
2023/09/18 01:05:56;;;;;;;11.45;9.75;;;;;;;-148.88;100.00;-17125.47;5031168;28;20483;-72
2023/09/18 01:08:22;;;;;;;11.88;9.73;;;;;;;-148.88;100.00;-17125.47;5032467;28;20072;-72
2023/09/18 01:11:02;;;;;;;13.55;9.95;;;;;;;-148.88;100.00;-17125.47;5032431;28;20495;-72
2023/09/18 01:13:34;;;;;;;12.10;9.63;;;;;;;-148.88;100.00;-17125.47;5032568;28;20025;-72
2023/09/18 01:16:34;;;;;;;10.53;9.17;;;;;;;-148.88;100.00;-17125.47;5032433;28;20495;-72
2023/09/18 01:19:02;;;;;;;11.80;9.35;;;;;;;-148.88;100.00;-17125.47;5031268;28;20514;-72
2023/09/18 01:21:28;;;;;;;17.17;9.80;;;;;;;-148.88;100.00;-17125.47;5030926;28;20022;-72
2023/09/18 01:23:53;;;;;;;10.95;9.20;;;;;;;-148.88;100.00;-17125.47;5032655;28;20025;-72
2023/09/18 01:26:18;;;;;;;10.20;9.20;;;;;;;-148.88;100.00;-17125.47;5032215;28;20029;-72
2023/09/18 01:28:44;;;;;;;12.10;9.85;;;;;;;-148.88;100.00;-17125.47;5032348;28;20029;-72
2023/09/18 01:31:09;;;;;;;10.57;8.75;;;;;;;-148.88;100.00;-17125.47;5032463;28;20423;-72
2023/09/18 01:33:38;;;;;;;10.38;9.10;;;;;;;-148.88;100.00;-17125.47;5032032;28;20032;-72
2023/09/18 01:36:07;;;;;;;11.30;9.40;;;;;;;-148.88;100.00;-17125.47;5031997;28;20037;-72
2023/09/18 01:38:33;;;;;;;12.15;9.98;;;;;;;-148.88;100.00;-17125.47;5031986;28;20032;-72
2023/09/18 01:41:01;;;;;;;11.25;9.73;;;;;;;-148.88;100.00;-17125.47;5032768;28;20029;-73
2023/09/18 01:43:26;;;;;;;11.23;10.00;;;;;;;-148.88;100.00;-17125.47;5032172;28;20105;-72
2023/09/18 01:45:52;;;;;;;13.15;10.13;;;;;;;-148.88;100.00;-17125.47;5030762;28;20117;-72
2023/09/18 01:48:18;;;;;;;14.05;10.20;;;;;;;-148.88;100.00;-17125.47;5030567;28;20505;-72
2023/09/18 01:50:43;;;;;;;12.10;10.30;;;;;;;-148.88;100.00;-17125.47;5031986;28;20112;-72
2023/09/18 01:53:09;;;;;;;11.65;10.25;;;;;;;-148.88;100.00;-17125.47;5032119;28;20104;-72
2023/09/18 01:55:34;;;;;;;10.85;9.82;;;;;;;-148.88;100.00;-17125.47;5032075;28;20443;-72
2023/09/18 01:57:59;;;;;;;12.05;10.50;;;;;;;-148.88;100.00;-17125.47;5031911;28;20377;-73
2023/09/18 02:00:25;;;;;;;12.23;10.55;;;;;;;-148.88;100.00;-17125.47;5031866;28;20021;-72
2023/09/18 02:02:50;;;;;;;11.45;10.00;;;;;;;-148.88;100.00;-17125.47;5031941;28;20112;-72
2023/09/18 02:05:16;;;;;;;13.25;11.43;;;;;;;-148.88;100.00;-17125.47;5031824;28;20022;-72
2023/09/18 02:07:41;;;;;;;13.75;10.45;;;;;;;-148.88;100.00;-17125.47;5031863;28;20030;-72
2023/09/18 02:10:07;;;;;;;10.57;9.48;;;;;;;-148.88;100.00;-17125.47;5030410;28;20029;-72
2023/09/18 02:12:32;;;;;;;12.73;9.65;;;;;;;-148.88;100.00;-17125.47;5030716;28;20026;-72
2023/09/18 02:14:58;;;;;;;14.45;9.98;;;;;;;-148.88;100.00;-17125.47;5031805;28;20105;-72
2023/09/18 02:17:24;;;;;;;14.70;10.05;;;;;;;-148.88;100.00;-17125.47;5031591;28;20104;-72
2023/09/18 02:19:49;;;;;;;11.75;9.43;;;;;;;-148.88;100.00;-17125.47;5031776;28;20491;-72
2023/09/18 02:22:15;;;;;;;11.63;10.07;;;;;;;-148.88;100.00;-17125.47;5031875;28;20070;-72
2023/09/18 02:24:40;;;;;;;12.25;10.00;;;;;;;-148.88;100.00;-17125.47;5031863;28;20018;-72
2023/09/18 02:27:06;;;;;;;12.73;10.15;;;;;;;-148.88;100.00;-17125.47;5031565;28;20029;-72
2023/09/18 02:29:31;;;;;;;12.18;9.60;;;;;;;-148.88;100.00;-17125.47;5032681;28;20028;-72
2023/09/18 02:31:57;;;;;;;12.50;9.70;;;;;;;-148.88;100.00;-17125.47;5035503;28;20029;-72
2023/09/18 02:34:22;;;;;;;11.82;9.55;;;;;;;-148.88;100.00;-17125.47;5035309;28;20021;-72
2023/09/18 02:36:47;;;;;;;14.93;10.20;;;;;;;-148.88;100.00;-17125.47;5033816;28;20029;-72
2023/09/18 02:39:13;;;;;;;10.27;9.18;;;;;;;-148.88;100.00;-17125.47;5035343;28;20025;-72
2023/09/18 02:41:38;;;;;;;11.85;9.60;;;;;;;-148.88;100.00;-17125.47;5035191;28;20025;-72
2023/09/18 02:44:04;;;;;;;13.65;9.85;;;;;;;-148.88;100.00;-17125.47;5035068;28;20064;-72
2023/09/18 02:46:29;;;;;;;14.93;9.77;;;;;;;-148.88;100.00;-17125.47;5033570;28;20025;-72
2023/09/18 02:48:55;;;;;;;11.05;9.27;;;;;;;-148.88;100.00;-17125.47;5034860;28;20498;-72
2023/09/18 02:51:20;;;;;;;12.07;9.25;;;;;;;-148.88;100.00;-17125.47;5033484;28;20024;-72
2023/09/18 02:53:45;;;;;;;9.93;8.70;;;;;;;-148.88;100.00;-17125.47;5034575;28;20442;-72
2023/09/18 02:56:11;;;;;;;11.57;8.63;;;;;;;-148.88;100.00;-17125.47;5033490;28;20026;-73
2023/09/18 02:58:36;;;;;;;13.60;8.88;;;;;;;-148.88;100.00;-17125.47;5034720;28;20542;-72
2023/09/18 03:01:03;;;;;;;14.02;8.30;;;;;;;-148.88;100.00;-17125.47;5034525;28;20431;-72
2023/09/18 03:03:29;;;;;;;11.05;8.70;;;;;;;-148.88;100.00;-17125.47;5034696;28;20022;-72
2023/09/18 03:06:01;;;;;;;11.07;8.95;;;;;;;-148.88;100.00;-17125.47;5033197;28;20128;-72
2023/09/18 03:08:26;;;;;;;11.45;8.27;;;;;;;-148.88;100.00;-17125.47;5034493;28;20021;-72
2023/09/18 03:10:51;;;;;;;10.43;8.20;;;;;;;-148.88;100.00;-17125.47;5034617;28;20435;-72
2023/09/18 03:13:17;;;;;;;10.02;8.18;;;;;;;-148.88;100.00;-17125.47;5034368;28;20027;-72
2023/09/18 03:15:47;;;;;;;11.35;8.20;;;;;;;-148.88;100.00;-17125.47;5034256;28;20476;-72
2023/09/18 03:18:12;;;;;;;10.68;8.23;;;;;;;-148.88;100.00;-17125.47;5034315;28;20476;-72
2023/09/18 03:20:38;;;;;;;9.38;7.88;;;;;;;-148.88;100.00;-17125.47;5034188;28;20056;-72
2023/09/18 03:23:03;;;;;;;10.45;7.72;;;;;;;-148.88;100.00;-17125.47;5032924;28;20112;-72
2023/09/18 03:25:29;;;;;;;10.50;8.57;;;;;;;-148.88;100.00;-17125.47;5032831;28;20403;-73
2023/09/18 03:27:58;;;;;;;10.73;8.13;;;;;;;-148.88;100.00;-17125.47;5034214;28;20036;-72
2023/09/18 03:30:24;;;;;;;10.60;8.02;;;;;;;-148.88;100.00;-17125.47;5034050;28;20435;-72
2023/09/18 03:32:50;;;;;;;11.48;8.35;;;;;;;-148.88;100.00;-17125.47;5034015;28;20021;-72
2023/09/18 03:35:19;;;;;;;11.50;7.60;;;;;;;-148.88;100.00;-17125.47;5034098;28;20483;-72
2023/09/18 03:37:52;;;;;;;10.57;7.97;;;;;;;-148.88;100.00;-17125.47;5033918;28;20033;-72
2023/09/18 03:40:18;;;;;;;11.70;7.82;;;;;;;-148.88;100.00;-17125.47;5033619;28;20025;-73
2023/09/18 03:42:45;;;;;;;12.05;7.57;;;;;;;-148.88;100.00;-17125.47;5033761;28;20424;-72
2023/09/18 03:45:10;;;;;;;11.40;7.30;;;;;;;-148.88;100.00;-17125.47;5033980;28;20392;-73
2023/09/18 03:47:38;;;;;;;9.85;6.88;;;;;;;-148.88;100.00;-17125.47;5033854;28;20480;-73
2023/09/18 03:50:05;;;;;;;10.65;7.47;;;;;;;-148.88;100.00;-17125.47;5033896;28;20044;-72
2023/09/18 03:52:31;;;;;;;8.75;6.55;;;;;;;-148.88;100.00;-17125.47;5032355;28;20121;-72
2023/09/18 03:54:56;;;;;;;9.13;6.75;;;;;;;-148.88;100.00;-17125.47;5032303;28;20029;-72
2023/09/18 03:57:21;;;;;;;10.63;7.57;;;;;;;-148.88;100.00;-17125.47;5033536;28;20036;-72
2023/09/18 03:59:47;;;;;;;12.00;7.43;;;;;;;-148.88;100.00;-17125.47;5033450;28;20071;-72
2023/09/18 04:02:12;;;;;;;10.35;6.65;;;;;;;-148.88;100.00;-17125.47;5033597;28;20022;-72
2023/09/18 04:04:38;;;;;;;11.88;7.30;;;;;;;-148.88;100.00;-17125.47;5033377;28;20041;-72
2023/09/18 04:07:07;;;;;;;9.20;6.78;;;;;;;-148.88;100.00;-17125.47;5031915;28;20420;-72
2023/09/18 04:09:34;;;;;;;7.72;6.05;;;;;;;-148.88;100.00;-17125.47;5033516;28;20111;-72
2023/09/18 04:12:00;;;;;;;9.07;6.32;;;;;;;-148.88;100.00;-17125.47;5033247;28;20397;-72
2023/09/18 04:14:26;;;;;;;8.70;6.25;;;;;;;-148.88;100.00;-17125.47;5033321;28;20034;-72
2023/09/18 04:16:51;;;;;;;10.55;6.80;;;;;;;-148.88;100.00;-17125.47;5033349;28;20100;-72
2023/09/18 04:19:17;;;;;;;11.55;6.75;;;;;;;-148.88;100.00;-17125.47;5031821;28;20112;-72
2023/09/18 04:21:42;;;;;;;10.55;6.70;;;;;;;-148.88;100.00;-17125.47;5033030;28;20022;-72
2023/09/18 04:24:07;;;;;;;8.55;6.43;;;;;;;-148.88;100.00;-17125.47;5033142;28;20074;-72
2023/09/18 04:26:33;;;;;;;8.63;6.07;;;;;;;-148.88;100.00;-17125.47;5033002;28;20025;-72
2023/09/18 04:29:00;;;;;;;10.57;6.32;;;;;;;-148.88;100.00;-17125.47;5031772;28;20030;-72
2023/09/18 04:31:27;;;;;;;10.43;6.43;;;;;;;-148.88;100.00;-17125.47;5033164;28;20018;-72
2023/09/18 04:33:53;;;;;;;9.95;5.95;;;;;;;-148.88;100.00;-17125.47;5032848;28;20022;-72
2023/09/18 04:36:18;;;;;;;11.18;6.55;;;;;;;-148.88;100.00;-17125.47;5031514;28;20027;-71
2023/09/18 04:38:43;;;;;;;8.32;5.88;;;;;;;-148.88;100.00;-17125.47;5032841;28;20025;-72
2023/09/18 04:41:10;;;;;;;7.97;6.10;;;;;;;-148.88;100.00;-17125.47;5031479;28;20017;-72
2023/09/18 04:43:36;;;;;;;10.57;6.35;;;;;;;-148.88;100.00;-17125.47;5032724;28;20022;-74
2023/09/18 04:46:04;;;;;;;10.38;6.50;;;;;;;-148.88;100.00;-17125.47;5032712;28;20509;-73
2023/09/18 04:48:30;;;;;;;7.53;6.32;;;;;;;-148.88;100.00;-17125.47;5032651;28;20083;-73
2023/09/18 04:50:57;;;;;;;9.75;6.13;;;;;;;-148.88;100.00;-17125.47;5032636;28;20018;-74
2023/09/18 04:53:22;;;;;;;9.45;6.25;;;;;;;-148.88;100.00;-17125.47;5032030;28;20057;-73
2023/09/18 04:55:50;;;;;;;7.28;6.18;;;;;;;-148.88;100.00;-17125.47;5032718;28;20132;-74
2023/09/18 04:58:17;;;;;;;8.93;6.20;;;;;;;-148.88;100.00;-17125.47;5032679;28;20079;-73
2023/09/18 05:00:42;;;;;;;9.18;6.22;;;;;;;-148.88;100.00;-17125.47;5031296;28;20032;-72
2023/09/18 05:03:09;;;;;;;8.25;5.97;;;;;;;-148.88;100.00;-17125.47;5032611;28;20025;-74
2023/09/18 05:05:35;;;;;;;7.55;5.88;;;;;;;-148.88;100.00;-17125.47;5031024;28;20123;-75
2023/09/18 05:08:07;;;;;;;9.18;6.32;;;;;;;-148.88;100.00;-17125.47;5032359;28;20017;-73
2023/09/18 05:10:36;;;;;;;8.50;6.07;;;;;;;-148.88;100.00;-17125.47;5031038;28;20024;-73
2023/09/18 05:13:02;;;;;;;9.60;5.97;;;;;;;-148.88;100.00;-17125.47;5032303;28;20043;-73
2023/09/18 05:15:31;;;;;;;7.38;6.15;;;;;;;-148.88;100.00;-17125.47;5032273;28;20454;-73
2023/09/18 05:17:57;;;;;;;10.05;6.60;;;;;;;-148.88;100.00;-17125.47;5030796;28;20166;-73
2023/09/18 05:20:24;;;;;;;10.60;6.93;;;;;;;-148.88;100.00;-17125.47;5030944;28;20026;-74
2023/09/18 05:22:52;;;;;;;10.60;6.82;;;;;;;-148.88;100.00;-17125.47;5032283;28;20488;-73
2023/09/18 05:25:18;;;;;;;8.43;6.40;;;;;;;-148.88;100.00;-17125.47;5030886;28;20048;-73
2023/09/18 05:27:44;;;;;;;7.60;6.10;;;;;;;-148.88;100.00;-17125.47;5032111;28;20082;-73
2023/09/18 05:30:13;;;;;;;8.50;6.40;;;;;;;-148.88;100.00;-17125.47;5031241;28;20022;-73
2023/09/18 05:32:38;;;;;;;8.40;6.03;;;;;;;-148.88;100.00;-17125.47;5030884;28;20025;-73
2023/09/18 05:35:09;;;;;;;8.65;6.10;;;;;;;-148.88;100.00;-17125.47;5032042;28;20036;-73
2023/09/18 05:37:36;;;;;;;9.75;5.70;;;;;;;-148.88;100.00;-17125.47;5032170;28;20120;-73
2023/09/18 05:40:04;;;;;;;9.60;6.85;;;;;;;-148.88;100.00;-17125.47;5032244;28;20026;-73
2023/09/18 05:42:29;;;;;;;9.52;5.95;;;;;;;-148.88;100.00;-17125.47;5030718;28;20026;-72
2023/09/18 05:44:56;;;;;;;9.00;7.15;;;;;;;-148.88;100.00;-17125.47;5031974;28;20033;-73
2023/09/18 05:47:22;;;;;;;8.98;6.38;;;;;;;-148.88;100.00;-17125.47;5030717;28;20021;-73
2023/09/18 05:49:47;;;;;;;9.65;6.72;;;;;;;-148.88;100.00;-17125.47;5030735;28;20022;-73
2023/09/18 05:52:12;;;;;;;10.45;7.00;;;;;;;-148.88;100.00;-17125.47;5032056;28;20037;-73
2023/09/18 05:54:38;;;;;;;9.25;6.68;;;;;;;-148.88;100.00;-17125.47;5031938;28;20156;-72
2023/09/18 05:57:03;;;;;;;9.40;6.40;;;;;;;-148.88;100.00;-17125.47;5031861;28;20418;-73
2023/09/18 05:59:29;;;;;;;8.73;6.65;;;;;;;-148.88;100.00;-17125.47;5031794;28;20029;-73
2023/09/18 06:01:54;;;;;;;9.55;6.75;;;;;;;-148.88;100.00;-17125.47;5031775;28;20060;-74
2023/09/18 06:04:20;;;;;;;8.23;6.50;;;;;;;-148.88;100.00;-17125.47;5032655;28;20026;-74
2023/09/18 06:06:46;;;;;;;9.80;6.90;;;;;;;-148.88;100.00;-17125.47;5035602;28;20025;-74
2023/09/18 06:09:12;;;;;;;8.95;6.40;;;;;;;-148.88;100.00;-17125.47;5023741;28;20404;-72
2023/09/18 06:11:38;;;;;;;8.40;6.70;;;;;;;-148.88;100.00;-17125.47;5015025;28;20026;-73
2023/09/18 06:14:03;;;;;;;10.32;6.50;;;;;;;-148.88;100.00;-17125.47;5015672;28;20030;-73
2023/09/18 06:16:29;;;;;;;8.48;6.18;;;;;;;-148.88;100.00;-17125.47;5023582;28;20033;-72
2023/09/18 06:18:55;;;;;;;12.20;6.88;;;;;;;-148.88;100.00;-17125.47;5015564;28;20125;-72
2023/09/18 06:21:21;;;;;;;9.95;6.93;;;;;;;-148.88;100.00;-17125.47;5014170;28;20033;-73
2023/09/18 06:23:46;;;;;;;9.52;7.20;;;;;;;-148.88;100.00;-17125.47;5015351;28;20026;-73
2023/09/18 06:26:12;;;;;;;10.63;6.65;;;;;;;-148.88;100.00;-17125.47;5015252;28;20022;-72
2023/09/18 06:28:38;;;;;;;9.95;6.93;;;;;;;-148.88;100.00;-17125.47;5014120;28;20028;-73
2023/09/18 06:31:03;;;;;;;9.43;6.40;;;;;;;-148.88;100.00;-17125.47;5015393;28;20026;-73
2023/09/18 06:33:29;;;;;;;7.22;6.25;;;;;;;-148.88;100.00;-17125.47;5015560;28;20113;-74
2023/09/18 06:35:55;;;;;;;7.70;6.22;;;;;;;-148.88;100.00;-17125.47;5015374;28;20033;-74
2023/09/18 06:38:20;;;;;;;10.93;5.97;;;;;;;-148.88;100.00;-17125.47;5015292;28;20439;-74
2023/09/18 06:40:46;;;;;;;8.63;5.60;;;;;;;-148.88;100.00;-17125.47;5015181;28;20033;-73
2023/09/18 06:43:11;;;;;;;10.35;5.43;;;;;;;-148.88;100.00;-17125.47;5015255;28;20017;-73
2023/09/18 06:45:38;;;;;;;6.97;5.03;;;;;;;-148.88;100.00;-17125.47;5015411;28;20022;-73
2023/09/18 06:48:04;;;;;;;8.13;5.05;;;;;;;-148.88;100.00;-17125.47;5013797;28;20079;-73
2023/09/18 06:50:30;;;;;;;11.07;5.70;;;;;;;-148.88;100.00;-17125.47;5015397;28;20029;-73
2023/09/18 06:55:28;;;;;;;9.07;4.95;;;;;;;-148.88;100.00;-17125.47;5015496;28;20066;-86
2023/09/18 06:57:54;;;;;;;7.35;5.00;;;;;;;-148.88;100.00;-17125.47;5016958;28;20085;-85
2023/09/18 07:00:20;;;;;;;8.35;5.28;;;;;;;-148.88;100.00;-17125.47;5031315;28;20026;-86
2023/09/18 07:02:46;;;;;;;8.82;5.22;;;;;;;-148.88;100.00;-17125.47;5015073;28;20026;-84
2023/09/18 07:05:11;;;;;;;6.57;5.03;;;;;;;-148.88;100.00;-17125.47;5015867;28;20033;-87
2023/09/18 07:07:37;;;;;;;7.03;5.07;;;;;;;-148.88;100.00;-17125.47;5032548;22;20132;-75
2023/09/18 07:10:02;;;;;;;7.65;4.55;;;;;;;-148.88;100.00;-17125.47;5033220;28;20039;-75
2023/09/18 07:12:31;;;;;;;8.10;4.80;;;;;;;-148.88;100.00;-17125.47;5034534;28;20035;-74
2023/09/18 07:14:56;;;;;;;8.18;4.82;;;;;;;-148.88;100.00;-17125.47;5033762;28;20032;-74
2023/09/18 07:17:22;;;;;;;13.23;4.90;;;;;;;-148.88;100.00;-17125.47;5034764;28;20025;-74
2023/09/18 07:19:47;;;;;;;8.13;4.60;;;;;;;-148.88;100.00;-17125.47;5034178;28;20021;-74
2023/09/18 07:22:12;;;;;;;10.05;5.10;;;;;;;-148.88;100.00;-17125.47;5034254;28;20025;-74
2023/09/18 07:24:42;;;;;;;7.75;4.50;;;;;;;-148.88;100.00;-17125.47;5034670;28;20383;-74
2023/09/18 07:27:08;;;;;;;8.02;4.13;;;;;;;-148.88;100.00;-17125.47;5034898;28;20029;-74
2023/09/18 07:29:34;;;;;;;7.90;4.60;;;;;;;-148.88;100.00;-17125.47;5034087;28;20108;-74
2023/09/18 07:32:01;;;;;;;9.52;4.65;;;;;;;-148.88;100.00;-17125.47;5033950;28;20033;-75
2023/09/18 07:34:26;;;;;;;9.23;3.67;;;;;;;-148.88;100.00;-17125.47;5033941;28;20029;-74
2023/09/18 07:36:55;;;;;;;8.52;3.78;;;;;;;-148.88;100.00;-17125.47;5034104;28;20025;-75
2023/09/18 07:39:20;;;;;;;8.63;3.67;;;;;;;-148.88;100.00;-17125.47;5032437;28;20021;-76
2023/09/18 07:41:47;;;;;;;7.50;3.63;;;;;;;-148.88;100.00;-17125.47;5033934;28;20071;-74
2023/09/18 07:44:13;;;;;;;7.38;3.70;;;;;;;-148.88;100.00;-17125.47;5033832;28;20076;-74
2023/09/18 07:46:38;;;;;;;9.32;3.60;;;;;;;-148.88;100.00;-17125.47;5033537;28;20439;-74
2023/09/18 07:49:03;;;;;;;8.05;3.15;;;;;;;-148.88;100.00;-17125.47;5033645;28;20051;-74
2023/09/18 07:51:30;;;;;;;7.20;3.17;;;;;;;-148.88;100.00;-17125.47;5033888;28;20017;-73
2023/09/18 07:53:55;;;;;;;8.95;3.15;;;;;;;-148.88;100.00;-17125.47;5032364;28;20410;-74
2023/09/18 07:56:21;;;;;;;7.60;3.22;;;;;;;-148.88;100.00;-17125.47;5033496;28;20543;-73
2023/09/18 07:58:46;;;;;;;5.18;3.30;;;;;;;-148.88;100.00;-17125.47;5033571;28;20500;-74
2023/09/18 08:01:12;;;;;;;6.53;3.30;;;;;;;-148.88;100.00;-17125.47;5033388;28;20025;-73
2023/09/18 08:03:38;;;;;;;7.60;3.58;;;;;;;-148.88;100.00;-17125.47;5033483;28;20108;-74
2023/09/18 08:06:04;;;;;;;6.05;2.67;;;;;;;-148.88;100.00;-17125.47;5032097;28;20509;-74
2023/09/18 08:08:32;;;;;;;8.48;3.00;;;;;;;-148.88;100.00;-17125.47;5031849;28;20044;-73
2023/09/18 08:10:58;;;;;;;10.75;2.88;;;;;;;-148.88;100.00;-17125.47;5033226;28;20029;-74
2023/09/18 08:13:24;;;;;;;11.20;3.00;;;;;;;-148.88;100.00;-17125.47;5031860;28;20079;-73
2023/09/18 08:15:50;;;;;;;5.97;2.50;;;;;;;-148.88;100.00;-17125.47;5031933;28;20052;-73
2023/09/18 08:18:16;;;;;;;5.65;2.28;;;;;;;-148.88;100.00;-17125.47;5033144;28;20021;-74
2023/09/18 08:20:45;;;;;;;7.28;2.55;;;;;;;-148.88;100.00;-17125.47;5032269;28;20446;-74
2023/09/18 08:23:12;;;;;;;6.32;2.63;;;;;;;-148.88;100.00;-17125.47;5033271;28;20049;-74
2023/09/18 08:25:39;;;;;;;6.22;2.40;;;;;;;-148.88;100.00;-17125.47;5033084;28;20025;-74
2023/09/18 08:28:06;;;;;;;5.53;2.67;;;;;;;-148.88;100.00;-17125.47;5032100;28;20018;-74
2023/09/18 08:30:32;;;;;;;6.00;2.00;;;;;;;-148.88;100.00;-17125.47;5033032;28;20026;-74
2023/09/18 08:32:57;;;;;;;6.43;2.30;;;;;;;-148.88;100.00;-17125.47;5032766;28;20026;-74
2023/09/18 08:35:23;;;;;;;12.10;2.60;;;;;;;-148.88;100.00;-17125.47;5032825;28;20022;-74
2023/09/18 08:37:48;;;;;;;8.20;2.40;;;;;;;-148.88;100.00;-17125.47;5032655;28;20029;-74
2023/09/18 08:40:14;;;;;;;6.78;1.90;;;;;;;-148.88;100.00;-17125.47;5032603;28;20109;-74
2023/09/18 08:42:45;;;;;;;7.78;2.22;;;;;;;-148.88;100.00;-17125.47;5032666;28;20048;-73
2023/09/18 08:45:18;;;;;;;6.85;2.40;;;;;;;-148.88;100.00;-17125.47;5032967;28;20029;-74
2023/09/18 08:47:45;;;;;;;8.25;2.45;;;;;;;-148.88;100.00;-17125.47;5032706;28;20044;-74
2023/09/18 08:50:12;;;;;;;10.65;2.55;;;;;;;-148.88;100.00;-17125.47;5032727;28;20026;-74
2023/09/18 08:52:38;;;;;;;6.13;2.15;;;;;;;-148.88;100.00;-17125.47;5032766;28;20029;-74
2023/09/18 08:55:04;;;;;;;6.97;2.10;;;;;;;-148.88;100.00;-17125.47;5032693;28;20428;-74
2023/09/18 08:57:30;;;;;;;5.05;2.17;;;;;;;-148.88;100.00;-17125.47;5032371;28;20033;-74
2023/09/18 08:59:58;;;;;;;7.25;2.20;;;;;;;-148.88;100.00;-17125.47;5032318;28;20171;-74
2023/09/18 09:02:23;;;;;;;7.88;2.20;;;;;;;-148.88;100.00;-17125.47;5032387;28;20021;-74
2023/09/18 09:04:49;;;;;;;10.77;2.58;;;;;;;-148.88;100.00;-17125.47;5032316;28;20029;-74
2023/09/18 09:07:15;;;;;;;8.30;2.45;;;;;;;-148.88;100.00;-17125.47;5032086;28;20036;-74
2023/09/18 09:09:41;;;;;;;6.55;2.22;;;;;;;-148.88;100.00;-17125.47;5032236;28;20029;-74
2023/09/18 09:12:08;;;;;;;6.13;2.30;;;;;;;-148.88;100.00;-17125.47;5031026;28;20033;-74
2023/09/18 09:14:33;;;;;;;6.93;2.30;;;;;;;-148.88;100.00;-17125.47;5032232;28;20029;-74
2023/09/18 09:16:59;;;;;;;7.10;2.00;;;;;;;-148.88;100.00;-17125.47;5032320;28;20442;-74
2023/09/18 09:19:32;;;;;;;5.45;2.00;;;;;;;-148.88;100.00;-17125.47;5032101;28;20025;-74
2023/09/18 09:22:00;;;;;;;6.43;1.98;;;;;;;-148.88;100.00;-17125.47;5030726;28;20032;-74
2023/09/18 09:24:40;;;;;;;7.22;2.03;;;;;;;-148.88;100.00;-17125.47;5032286;28;20036;-74
2023/09/18 09:27:06;;;;;;;6.63;2.20;;;;;;;-148.88;100.00;-17125.47;5032024;28;20033;-74
2023/09/18 09:29:31;;;;;;;7.45;2.10;;;;;;;-148.88;100.00;-17125.47;5031991;28;20116;-74
2023/09/18 09:32:18;;;;;;;7.28;2.10;;;;;;;-148.88;100.00;-17125.47;5031999;28;20026;-74
2023/09/18 09:34:44;;;;;;;4.68;2.15;;;;;;;-148.88;100.00;-17125.47;5032192;28;20132;-74
2023/09/18 09:37:10;;;;;;;4.70;2.00;;;;;;;-148.88;100.00;-17125.47;5031968;28;20021;-74
2023/09/18 09:39:51;;;;;;;5.50;2.38;;;;;;;-148.88;100.00;-17125.47;5033554;28;20514;-74
2023/09/18 10:39:42;;;;;;;4.82;2.05;;;;;;;-148.88;100.00;-17125.47;5089792;27;20383;-73
2023/09/18 10:42:12;;;;;;;7.75;2.03;;;;;;;-148.88;100.00;-17125.47;5087791;28;20066;-73
2023/09/18 10:44:40;;;;;;;6.15;2.28;;;;;;;-148.88;100.00;-17125.47;5089126;28;20030;-74
2023/09/18 10:47:08;;;;;;;4.13;2.13;;;;;;;-148.88;100.00;-17125.47;5088982;28;20088;-74
2023/09/18 10:49:36;;;;;;;5.35;1.83;;;;;;;-148.88;100.00;-17125.47;5089076;28;20024;-74
2023/09/18 10:52:03;;;;;;;5.82;2.00;;;;;;;-148.88;100.00;-17125.47;5089050;28;20487;-74
2023/09/18 10:54:30;;;;;;;4.97;1.80;;;;;;;-148.88;100.00;-17125.47;5089106;28;20028;-73
2023/09/18 10:56:57;;;;;;;6.75;1.92;;;;;;;-148.88;100.00;-17125.47;5088499;28;20020;-73
2023/09/18 10:59:23;;;;;;;5.93;2.20;;;;;;;-148.88;99.02;-17125.47;5089183;28;20032;-73
2023/09/18 11:01:49;;;;;;;8.05;2.13;;;;;;;-148.88;100.00;-17125.47;5088951;28;20441;-74
2023/09/18 11:04:19;;;;;;;4.13;1.88;;;;;;;-148.88;98.95;-17125.47;5088972;28;20031;-74
2023/09/18 11:06:53;;;;;;;5.03;2.22;;;;;;;-148.88;97.97;-17125.47;5089210;28;20050;-74
2023/09/18 11:09:20;;;;;;;4.22;1.83;;;;;;;-148.88;98.18;-17125.47;5088829;28;20505;-74
2023/09/18 11:11:48;;;;;;;3.83;2.38;;;;;;;-148.88;99.28;-17125.47;5088775;28;20411;-74
2023/09/18 11:14:14;;;;;;;4.75;2.00;;;;;;;-148.88;99.56;-17125.47;5088897;28;20016;-74
2023/09/18 11:16:40;;;;;;;7.25;2.35;;;;;;;-148.88;99.84;-17125.47;5088701;28;20020;-74
2023/09/18 11:19:17;;;;;;;6.07;2.20;;;;;;;-148.88;100.00;-17125.47;5088622;28;20495;-75
2023/09/18 11:21:43;;;;;;;6.60;2.40;;;;;;;-148.88;100.00;-17125.47;5088735;28;20069;-76
2023/09/18 11:24:20;;;;;;;4.05;2.15;;;;;;;-148.88;100.00;-17125.47;5088546;28;20032;-75
2023/09/18 11:26:48;;;;;;;5.03;1.90;;;;;;;-148.88;100.00;-17125.47;5088854;28;20155;-74
2023/09/18 11:29:17;;;;;;;5.32;2.00;;;;;;;-148.88;100.00;-17125.47;5088387;28;20020;-74
2023/09/18 11:31:53;;;;;;;6.45;2.13;;;;;;;-148.88;99.26;-17125.47;5088409;28;20047;-74
2023/09/18 11:34:23;;;;;;;4.13;1.67;;;;;;;-148.88;99.15;-17125.47;5088800;28;20024;-74
2023/09/18 11:36:50;;;;;;;7.90;2.17;;;;;;;-148.88;98.84;-17125.47;5086950;28;20052;-74
2023/09/18 11:39:41;;;;;;;5.18;1.80;;;;;;;-148.88;98.58;-17125.47;5082567;28;20109;-74
2023/09/18 11:42:19;;;;;;;6.13;2.10;;;;;;;-148.88;99.33;-17125.47;5074612;28;20082;-74
2023/09/18 11:44:46;;;;;;;4.15;1.90;;;;;;;-148.88;98.56;-17125.47;5075322;28;20036;-74
2023/09/18 11:47:19;;;;;;;4.10;2.08;;;;;;;-148.88;94.84;-17125.47;5074492;28;20062;-75
2023/09/18 11:49:57;;;;;;;5.35;2.13;;;;;;;-148.88;93.67;-17125.47;5074553;28;20020;-75
2023/09/18 11:52:25;;;;;;;4.82;1.75;;;;;;;-148.88;89.95;-17125.47;5074741;28;20035;-74
2023/09/18 11:54:51;;;;;;;4.78;1.70;;;;;;;-148.88;89.92;-17125.47;5073201;28;20024;-75
2023/09/18 11:57:20;;;;;;;3.72;1.77;;;;;;;-148.88;89.53;-17125.47;5074543;28;20102;-75